Weather at Port Elizabeth Airport

Public forecast

Using degrees Celsius for public forecast. Weather courtesy of forecast.io.

Current aviation weather report (METAR) for Port Elizabeth Airport

Retrieved 2021/01/25 21:00 UTC (17 minutes ago):

FAPE 252100Z AUTO 07010KT 9999 SCT002/// 19/17 Q1011 NOSIG

Aviation forecast (TAF) for Port Elizabeth Airport

Retrieved 2021/01/25 18:00 UTC (3 hours ago):

TAF FAPE 251600Z 2518/2618 09020G30KT CAVOK TX26/2612Z TN18/2603Z BECMG 2600/2602 VRB03KT FEW010 BECMG 2606/2608 23015KT BECMG 2615/2617 4500 DZ BKN010